Marcellus, MI

4:50 AM EST on February 06, 2016 (GMT -0500)
Farming/Agriculture | | Change Station
CLOSE
Current Station
Personal Weather Station
Location: Decatur, MI
Elevation: 864 ft
Nearby Weather Stations

Elev 864 ft 42.05 °N, 85.91 °W | Updated 18 seconds ago

Clear
Clear
21.2 °F
Feels Like 21 °F
N
0.0
Wind Variable Wind from SW
Gusts 0.0 mph

Today
High -- | Low -- °F
--% Chance of Precip.
Yesterday
High -- | Low -- °F
Precip. -- in
Pressure 30.28 in
Visibility 4.0 miles
Clouds Clear
Windchill 21 °F
Dew Point 18 °F
Humidity 87%
Rainfall 0.00 in
Snow Depth Not available.
7:51 AM 6:04 PM
Waning Crescent, 6% visible
METAR KHAI 060935Z AUTO 20005KT 4SM BR CLR M06/M07 A3028 RMK AO2 T10621070
Pressure 30.28 in
Visibility 4.0 miles
Clouds Clear
Windchill 21 °F
Dew Point 18 °F
Humidity 87%
Rainfall 0.00 in
Snow Depth Not available.
7:51 AM 6:04 PM
Waning Crescent, 6% visible
METAR KHAI 060935Z AUTO 20005KT 4SM BR CLR M06/M07 A3028 RMK AO2 T10621070

10-Day Weather Forecast

Almanac

Astronomy

Feb. 06, 2016 Rise Set
Actual Time
Civil Twilight
Nautical Twilight
Astronomical Twilight
Moon
Length of Visible Light
Length of Day
Tomorrow will be .
, % of the Moon is Illuminated

Today's Extremes

State Highs State Lows

Community

WunderPhotos

Upload Photos

1,890,933 photos uploaded!

WunderBlog® & News

Nearby

Air Quality

  Air Quality AQ Index Pollutant
Not available.

Snow Depth

Station Depth Elevation

Earthquake Activity

City Distance Mag. Time & Date
Minimum magnitude displayed is 2.5.

Coastal Water Temperatures

Place Temperature

Stations

Nearby Weather Stations

Station Location Temp. Windchill Dew Point Humidity Wind Precip. Elev Updated Type
                   

Watches & Warnings

There are currently no watches in effect.